Time;durP1;ratioP1;P1;durP2;ratioP2;P2;SDS_P1;SDS_P2;PMS_P1;PMS_P2;Temp;Humidity;BMP_temperature;BMP_pressure;BME280_temperature;BME280_humidity;BME280_pressure;Samples;Min_cycle;Max_cycle;Signal;HPM_P1;HPM_P2
2022/03/02 00:00:48;;;;;;;25.55;13.50;;;;;;;;;;6013768;23;20071;-56
2022/03/02 00:03:13;;;;;;;27.92;14.45;;;;;;;;;;6010348;23;20016;-55
2022/03/02 00:05:38;;;;;;;29.85;14.75;;;;;;;;;;6013249;23;20016;-55
2022/03/02 00:08:04;;;;;;;26.33;13.43;;;;;;;;;;6012144;23;20071;-58
2022/03/02 00:10:30;;;;;;;31.20;15.60;;;;;;;;;;6013537;23;20019;-56
2022/03/02 00:12:55;;;;;;;27.48;14.88;;;;;;;;;;6011328;23;20014;-57
2022/03/02 00:15:20;;;;;;;27.45;14.07;;;;;;;;;;6010453;23;20016;-58
2022/03/02 00:17:46;;;;;;;25.70;15.02;;;;;;;;;;6012893;23;20027;-56
2022/03/02 00:20:12;;;;;;;30.67;16.35;;;;;;;;;;5990613;23;20023;-57
2022/03/02 00:22:38;;;;;;;25.23;13.35;;;;;;;;;;6013565;23;20014;-58
2022/03/02 00:25:03;;;;;;;24.80;14.38;;;;;;;;;;6016632;23;20511;-57
2022/03/02 00:27:29;;;;;;;27.92;14.13;;;;;;;;;;6011513;23;20011;-57
2022/03/02 00:29:54;;;;;;;24.23;15.18;;;;;;;;;;6015206;23;20034;-58
2022/03/02 00:32:20;;;;;;;29.65;15.90;;;;;;;;;;6012252;23;20023;-57
2022/03/02 00:34:45;;;;;;;25.70;14.10;;;;;;;;;;6016316;23;20298;-56
2022/03/02 00:37:10;;;;;;;28.90;14.07;;;;;;;;;;6011857;23;20007;-57
2022/03/02 00:39:35;;;;;;;26.10;14.23;;;;;;;;;;6014841;23;20022;-52
2022/03/02 00:42:01;;;;;;;28.13;16.73;;;;;;;;;;5988388;23;20035;-58
2022/03/02 00:44:26;;;;;;;24.48;14.57;;;;;;;;;;6013887;23;20016;-56
2022/03/02 00:46:52;;;;;;;27.17;14.50;;;;;;;;;;6014987;23;20013;-57
2022/03/02 00:49:17;;;;;;;30.20;17.48;;;;;;;;;;5990692;23;20008;-57
2022/03/02 00:51:43;;;;;;;29.95;16.80;;;;;;;;;;6013679;23;20598;-57
2022/03/02 00:54:09;;;;;;;26.48;14.50;;;;;;;;;;6016075;23;20007;-50
2022/03/02 00:56:34;;;;;;;29.58;16.17;;;;;;;;;;6013841;23;20011;-58
2022/03/02 00:58:59;;;;;;;29.65;14.10;;;;;;;;;;6015946;23;20326;-58
2022/03/02 01:01:25;;;;;;;27.58;16.00;;;;;;;;;;6012918;23;20436;-58
2022/03/02 01:03:50;;;;;;;28.65;15.73;;;;;;;;;;6015835;23;20016;-57
2022/03/02 01:06:16;;;;;;;34.40;17.10;;;;;;;;;;6012593;23;20019;-57
2022/03/02 01:08:41;;;;;;;32.00;16.27;;;;;;;;;;6014035;23;20085;-58
2022/03/02 01:11:06;;;;;;;28.83;16.25;;;;;;;;;;6013385;23;20011;-57
2022/03/02 01:13:32;;;;;;;30.90;16.85;;;;;;;;;;5990075;23;20032;-57
2022/03/02 01:15:57;;;;;;;28.30;17.08;;;;;;;;;;6013766;23;20019;-58
2022/03/02 01:18:22;;;;;;;31.02;16.08;;;;;;;;;;6014926;23;20038;-57
2022/03/02 01:20:47;;;;;;;30.33;16.10;;;;;;;;;;6012799;23;20035;-58
2022/03/02 01:23:13;;;;;;;33.83;17.75;;;;;;;;;;6014978;23;20087;-58
2022/03/02 01:25:38;;;;;;;29.05;16.55;;;;;;;;;;6013617;23;20039;-58
2022/03/02 01:28:04;;;;;;;30.95;16.33;;;;;;;;;;6015089;23;20540;-58
2022/03/02 01:30:29;;;;;;;29.45;16.45;;;;;;;;;;6011699;23;20038;-56
2022/03/02 01:32:54;;;;;;;32.03;17.27;;;;;;;;;;5990522;23;20012;-54
2022/03/02 01:35:20;;;;;;;31.48;18.20;;;;;;;;;;6012056;23;20011;-58
2022/03/02 01:37:45;;;;;;;31.77;16.48;;;;;;;;;;6015198;23;20571;-58
2022/03/02 01:40:10;;;;;;;31.17;17.67;;;;;;;;;;6012924;23;20012;-57
2022/03/02 01:42:42;;;;;;;32.22;17.20;;;;;;;;;;5990510;23;20011;-57
2022/03/02 01:45:09;;;;;;;32.72;18.90;;;;;;;;;;6012768;23;20031;-58
2022/03/02 01:47:34;;;;;;;30.27;17.10;;;;;;;;;;6016152;23;20036;-57
2022/03/02 01:50:00;;;;;;;33.78;17.65;;;;;;;;;;6013619;23;20035;-58
2022/03/02 01:52:26;;;;;;;38.38;19.35;;;;;;;;;;6015265;23;20071;-57
2022/03/02 01:54:51;;;;;;;33.58;18.33;;;;;;;;;;6013156;23;20015;-57
2022/03/02 01:57:17;;;;;;;31.38;16.55;;;;;;;;;;6013999;23;20067;-58
2022/03/02 01:59:42;;;;;;;34.00;19.00;;;;;;;;;;6013763;23;20008;-57
2022/03/02 02:02:08;;;;;;;33.35;16.95;;;;;;;;;;6015308;23;20011;-57
2022/03/02 02:04:33;;;;;;;31.17;17.33;;;;;;;;;;6012455;23;20022;-58
2022/03/02 02:06:58;;;;;;;34.45;17.55;;;;;;;;;;6015227;23;20011;-58
2022/03/02 02:09:24;;;;;;;32.65;18.30;;;;;;;;;;6011477;23;20048;-57
2022/03/02 02:11:49;;;;;;;30.83;16.63;;;;;;;;;;6015368;23;20013;-58
2022/03/02 02:14:14;;;;;;;35.83;19.38;;;;;;;;;;6011941;23;20114;-54
2022/03/02 02:16:40;;;;;;;34.35;17.45;;;;;;;;;;6015291;23;20020;-57
2022/03/02 02:19:05;;;;;;;35.63;17.60;;;;;;;;;;6012404;23;20024;-58
2022/03/02 02:21:30;;;;;;;35.20;19.00;;;;;;;;;;6007344;23;20024;-57
2022/03/02 02:23:56;;;;;;;36.92;18.70;;;;;;;;;;6013501;23;20011;-55
2022/03/02 02:26:21;;;;;;;32.55;19.42;;;;;;;;;;6014778;23;20016;-57
2022/03/02 02:28:47;;;;;;;35.17;17.42;;;;;;;;;;6012974;23;20014;-57
2022/03/02 02:31:12;;;;;;;34.83;19.63;;;;;;;;;;6015874;23;20021;-56
2022/03/02 02:33:38;;;;;;;31.55;17.52;;;;;;;;;;6013895;23;20019;-57
2022/03/02 02:36:03;;;;;;;35.60;18.27;;;;;;;;;;6017299;23;20042;-58
2022/03/02 02:38:28;;;;;;;36.80;18.90;;;;;;;;;;6012765;23;20020;-58
2022/03/02 02:40:54;;;;;;;32.25;19.58;;;;;;;;;;6017079;23;20020;-55
2022/03/02 02:43:20;;;;;;;33.95;18.63;;;;;;;;;;6015085;23;20083;-56
2022/03/02 02:45:46;;;;;;;38.53;19.63;;;;;;;;;;6017190;23;20026;-57
2022/03/02 02:48:11;;;;;;;31.42;18.50;;;;;;;;;;5989959;23;20019;-57
2022/03/02 02:50:36;;;;;;;38.33;19.77;;;;;;;;;;6016370;23;20020;-58
2022/03/02 02:53:03;;;;;;;34.50;19.67;;;;;;;;;;6015237;23;20011;-57
2022/03/02 02:55:29;;;;;;;39.85;20.60;;;;;;;;;;6016305;23;20108;-58
2022/03/02 02:57:55;;;;;;;41.80;22.10;;;;;;;;;;6014515;23;20015;-58
2022/03/02 03:00:22;;;;;;;39.17;19.10;;;;;;;;;;6015611;23;20016;-57
2022/03/02 03:02:47;;;;;;;38.50;19.77;;;;;;;;;;6015453;23;20100;-58
2022/03/02 03:05:15;;;;;;;36.95;19.60;;;;;;;;;;6017128;23;20016;-57
2022/03/02 03:07:41;;;;;;;38.22;19.92;;;;;;;;;;6006049;23;20019;-58
2022/03/02 03:10:07;;;;;;;40.08;20.60;;;;;;;;;;6016001;23;20027;-56
2022/03/02 03:12:32;;;;;;;39.47;21.42;;;;;;;;;;6014776;23;20862;-58
2022/03/02 03:14:58;;;;;;;37.53;19.55;;;;;;;;;;6016350;23;20087;-57
2022/03/02 03:17:23;;;;;;;39.30;20.67;;;;;;;;;;6015435;23;20096;-57
2022/03/02 03:19:48;;;;;;;38.53;20.20;;;;;;;;;;6014778;23;20551;-58
2022/03/02 03:22:14;;;;;;;42.53;20.88;;;;;;;;;;6016882;23;20020;-58
2022/03/02 03:24:39;;;;;;;38.72;20.67;;;;;;;;;;6015304;23;20124;-56
2022/03/02 03:27:04;;;;;;;36.13;18.05;;;;;;;;;;6011340;23;20429;-58
2022/03/02 03:29:30;;;;;;;39.95;20.20;;;;;;;;;;6011368;23;20602;-58
2022/03/02 03:31:55;;;;;;;37.67;19.90;;;;;;;;;;6015691;23;20024;-57
2022/03/02 03:34:20;;;;;;;36.95;20.20;;;;;;;;;;6016523;23;20012;-57
2022/03/02 03:36:45;;;;;;;36.47;20.23;;;;;;;;;;6016525;23;20031;-57
2022/03/02 03:39:11;;;;;;;40.92;20.33;;;;;;;;;;6014637;23;20548;-57
2022/03/02 03:41:36;;;;;;;38.08;20.52;;;;;;;;;;6015850;23;20007;-56
2022/03/02 03:44:01;;;;;;;36.72;21.33;;;;;;;;;;6014553;23;20016;-57
2022/03/02 03:46:27;;;;;;;34.20;19.98;;;;;;;;;;6015428;23;20027;-58
2022/03/02 03:48:52;;;;;;;38.63;20.65;;;;;;;;;;6014575;23;20014;-58
2022/03/02 03:51:17;;;;;;;35.30;18.83;;;;;;;;;;6014505;23;20035;-57
2022/03/02 03:53:43;;;;;;;38.00;19.92;;;;;;;;;;6014208;23;20015;-55
2022/03/02 03:56:08;;;;;;;43.83;22.52;;;;;;;;;;5992017;23;20012;-58
2022/03/02 03:58:34;;;;;;;39.40;20.83;;;;;;;;;;6012701;23;20052;-58
2022/03/02 04:00:59;;;;;;;40.08;20.15;;;;;;;;;;6016030;23;20464;-57
2022/03/02 04:03:24;;;;;;;34.83;19.55;;;;;;;;;;6013421;23;20067;-58
2022/03/02 04:05:50;;;;;;;35.58;19.27;;;;;;;;;;6016486;23;20012;-57
2022/03/02 04:08:15;;;;;;;38.47;20.40;;;;;;;;;;6014483;23;20023;-55
2022/03/02 04:10:41;;;;;;;39.83;20.30;;;;;;;;;;6015907;23;20030;-57
2022/03/02 04:13:07;;;;;;;41.92;20.65;;;;;;;;;;6014334;23;20011;-57
2022/03/02 04:15:32;;;;;;;38.88;19.45;;;;;;;;;;6009489;23;20112;-58
2022/03/02 04:17:57;;;;;;;38.97;20.13;;;;;;;;;;6014026;23;20027;-57
2022/03/02 04:20:22;;;;;;;39.35;20.67;;;;;;;;;;6015698;23;20039;-57
2022/03/02 04:22:48;;;;;;;36.92;18.13;;;;;;;;;;6014519;23;20481;-58
2022/03/02 04:25:13;;;;;;;40.33;20.27;;;;;;;;;;6016395;23;20012;-58
2022/03/02 04:27:38;;;;;;;38.88;17.75;;;;;;;;;;6014260;23;20076;-58
2022/03/02 04:30:04;;;;;;;37.47;19.05;;;;;;;;;;6016011;23;20024;-59
2022/03/02 04:32:30;;;;;;;36.63;17.60;;;;;;;;;;6013248;23;20027;-58
2022/03/02 04:34:55;;;;;;;35.15;19.30;;;;;;;;;;6016267;23;20035;-56
2022/03/02 04:37:20;;;;;;;37.03;19.00;;;;;;;;;;6013340;23;20016;-57
2022/03/02 04:39:46;;;;;;;35.17;18.90;;;;;;;;;;6016373;23;20848;-58
2022/03/02 04:42:11;;;;;;;43.20;21.38;;;;;;;;;;6014604;23;20850;-58
2022/03/02 04:44:36;;;;;;;44.45;20.75;;;;;;;;;;6015306;23;20004;-57
2022/03/02 04:47:02;;;;;;;36.47;20.73;;;;;;;;;;6014221;23;20115;-57
2022/03/02 04:49:28;;;;;;;41.15;21.98;;;;;;;;;;6015154;23;20016;-58
2022/03/02 04:51:53;;;;;;;40.65;22.45;;;;;;;;;;6013719;23;20023;-58
2022/03/02 04:57:04;;;;;;;44.30;22.20;;;;;;;;;;6014612;23;20048;-56
2022/03/02 04:59:30;;;;;;;56.13;26.90;;;;;;;;;;6014974;23;20354;-58
2022/03/02 05:01:55;;;;;;;49.45;26.40;;;;;;;;;;5990231;23;20043;-57
2022/03/02 05:04:20;;;;;;;53.05;25.67;;;;;;;;;;6014317;23;20044;-58
2022/03/02 05:06:45;;;;;;;56.85;27.55;;;;;;;;;;6014025;23;20016;-58
2022/03/02 05:09:11;;;;;;;55.95;29.30;;;;;;;;;;6016149;23;20022;-57
2022/03/02 05:11:36;;;;;;;53.47;29.35;;;;;;;;;;6013449;23;20115;-57
2022/03/02 05:14:01;;;;;;;59.42;32.50;;;;;;;;;;6016010;23;20488;-58
2022/03/02 05:16:26;;;;;;;62.63;32.17;;;;;;;;;;6011595;23;20012;-57
2022/03/02 05:18:52;;;;;;;60.63;33.05;;;;;;;;;;6014796;23;20024;-58
2022/03/02 05:21:17;;;;;;;70.95;35.17;;;;;;;;;;6013330;23;20149;-58
2022/03/02 05:23:42;;;;;;;71.45;34.72;;;;;;;;;;6014773;23;20039;-57
2022/03/02 05:26:08;;;;;;;68.82;36.47;;;;;;;;;;6014042;23;20011;-58
2022/03/02 05:28:34;;;;;;;72.00;35.35;;;;;;;;;;6015570;23;20105;-58
2022/03/02 05:30:59;;;;;;;75.75;37.65;;;;;;;;;;6013638;23;20019;-58
2022/03/02 05:33:25;;;;;;;86.60;42.08;;;;;;;;;;6015397;23;20016;-58
2022/03/02 05:35:50;;;;;;;71.07;37.80;;;;;;;;;;6012759;23;20060;-56
2022/03/02 05:38:15;;;;;;;86.57;38.33;;;;;;;;;;6014813;23;20046;-50
2022/03/02 05:40:40;;;;;;;88.47;42.58;;;;;;;;;;6013987;23;20003;-56
2022/03/02 05:43:06;;;;;;;82.63;40.78;;;;;;;;;;6015881;23;20015;-58
2022/03/02 05:45:32;;;;;;;80.38;42.05;;;;;;;;;;6013530;23;20019;-58
2022/03/02 05:47:57;;;;;;;75.88;40.28;;;;;;;;;;6015775;23;20015;-56
2022/03/02 05:50:22;;;;;;;71.20;38.70;;;;;;;;;;6013513;23;20032;-57
2022/03/02 05:52:47;;;;;;;81.30;40.88;;;;;;;;;;6015502;23;20048;-58
2022/03/02 05:55:13;;;;;;;77.32;41.70;;;;;;;;;;6014199;23;20004;-56
2022/03/02 05:57:38;;;;;;;80.68;42.67;;;;;;;;;;6014744;23;20068;-58
2022/03/02 06:00:05;;;;;;;77.60;42.80;;;;;;;;;;6013800;23;20078;-59
2022/03/02 06:02:30;;;;;;;81.03;41.10;;;;;;;;;;6015432;23;20232;-58
2022/03/02 06:04:56;;;;;;;83.82;42.67;;;;;;;;;;6012477;23;20012;-57
2022/03/02 06:07:21;;;;;;;79.50;39.67;;;;;;;;;;6014277;23;20016;-57
2022/03/02 06:09:46;;;;;;;70.32;39.90;;;;;;;;;;6013850;23;20030;-57
2022/03/02 06:12:12;;;;;;;81.72;40.45;;;;;;;;;;6015261;23;20035;-58
2022/03/02 06:14:38;;;;;;;73.40;39.13;;;;;;;;;;6012503;23;20022;-58
2022/03/02 06:17:03;;;;;;;84.85;42.95;;;;;;;;;;6014384;23;20012;-55
2022/03/02 06:19:28;;;;;;;77.85;40.72;;;;;;;;;;6012745;23;20094;-57
2022/03/02 06:21:54;;;;;;;78.88;42.00;;;;;;;;;;6014823;23;20040;-57
2022/03/02 06:24:20;;;;;;;76.25;41.67;;;;;;;;;;6012334;23;20053;-58
2022/03/02 06:26:45;;;;;;;85.75;41.47;;;;;;;;;;6015355;23;20032;-57
2022/03/02 06:29:11;;;;;;;83.15;42.67;;;;;;;;;;6014403;23;20035;-57
2022/03/02 06:31:37;;;;;;;82.45;43.25;;;;;;;;;;6015156;23;20319;-58
2022/03/02 06:34:02;;;;;;;72.13;39.83;;;;;;;;;;6013952;23;20031;-58
2022/03/02 06:36:27;;;;;;;86.95;43.05;;;;;;;;;;6014488;23;20026;-57
2022/03/02 06:38:53;;;;;;;76.90;41.15;;;;;;;;;;6013876;23;20019;-57
2022/03/02 06:41:30;;;;;;;88.68;45.22;;;;;;;;;;6014880;23;20027;-58
2022/03/02 06:44:15;;;;;;;84.30;44.03;;;;;;;;;;6013659;23;20020;-57
2022/03/02 06:46:50;;;;;;;81.20;42.38;;;;;;;;;;6014469;23;20041;-57
2022/03/02 06:49:26;;;;;;;90.82;44.20;;;;;;;;;;6014937;23;20016;-55
2022/03/02 06:51:56;;;;;;;80.93;42.40;;;;;;;;;;6013014;23;20024;-58
2022/03/02 06:54:21;;;;;;;;;;;;;;;;;;6014823;23;20049;-57
2022/03/02 06:56:49;;;;;;;89.05;43.90;;;;;;;;;;6012987;23;19906;-58
2022/03/02 06:59:19;;;;;;;101.78;43.75;;;;;;;;;;6015072;23;20023;-56
2022/03/02 07:01:48;;;;;;;87.72;40.80;;;;;;;;;;6013162;23;20007;-56
2022/03/02 07:04:14;;;;;;;99.72;45.22;;;;;;;;;;6015534;23;20039;-58
2022/03/02 07:06:40;;;;;;;89.80;43.05;;;;;;;;;;6013381;23;20016;-57
2022/03/02 07:09:06;;;;;;;94.45;43.75;;;;;;;;;;6015353;23;20012;-57
2022/03/02 07:11:33;;;;;;;89.18;44.17;;;;;;;;;;6013272;23;20028;-58
2022/03/02 07:13:59;;;;;;;98.90;46.28;;;;;;;;;;6013951;23;20012;-58
2022/03/02 07:16:24;;;;;;;93.85;43.35;;;;;;;;;;6009370;23;20195;-56
2022/03/02 07:18:51;;;;;;;93.00;41.88;;;;;;;;;;6013547;23;20034;-58
2022/03/02 07:21:16;;;;;;;86.93;43.92;;;;;;;;;;6011500;23;20022;-57
2022/03/02 07:23:46;;;;;;;90.80;43.40;;;;;;;;;;6014948;23;20008;-57
2022/03/02 07:26:12;;;;;;;91.13;43.17;;;;;;;;;;6013044;23;20020;-58
2022/03/02 07:28:39;;;;;;;94.72;44.20;;;;;;;;;;6013105;23;20019;-57
2022/03/02 07:31:06;;;;;;;81.03;41.00;;;;;;;;;;6013051;23;20030;-56
2022/03/02 07:33:32;;;;;;;86.63;41.60;;;;;;;;;;6013904;23;20807;-58
2022/03/02 07:35:57;;;;;;;99.03;44.55;;;;;;;;;;6013336;23;20016;-56
2022/03/02 07:38:23;;;;;;;85.53;42.53;;;;;;;;;;6012466;23;20015;-58
2022/03/02 07:40:49;;;;;;;103.88;44.03;;;;;;;;;;6012606;23;20012;-58
2022/03/02 07:43:15;;;;;;;91.95;42.25;;;;;;;;;;6014118;23;20015;-57
2022/03/02 07:45:40;;;;;;;90.35;41.92;;;;;;;;;;6011717;23;20016;-57
2022/03/02 07:48:05;;;;;;;97.55;43.80;;;;;;;;;;6013617;23;20563;-57
2022/03/02 07:50:31;;;;;;;93.53;44.00;;;;;;;;;;5986736;23;20023;-58
2022/03/02 07:52:57;;;;;;;98.28;43.88;;;;;;;;;;5989885;23;20027;-57
2022/03/02 07:55:23;;;;;;;95.55;45.38;;;;;;;;;;6011785;23;20754;-57
2022/03/02 07:57:53;;;;;;;95.22;45.50;;;;;;;;;;6014169;23;20019;-55
2022/03/02 08:00:18;;;;;;;95.20;45.65;;;;;;;;;;5972262;23;20020;-58
2022/03/02 08:02:46;;;;;;;109.13;45.75;;;;;;;;;;5976274;23;20016;-58
2022/03/02 08:05:12;;;;;;;92.25;43.78;;;;;;;;;;5955269;23;20012;-58
2022/03/02 08:07:38;;;;;;;93.72;43.17;;;;;;;;;;5953796;23;20046;-57
2022/03/02 08:10:03;;;;;;;94.25;44.00;;;;;;;;;;5955227;23;20044;-57
2022/03/02 08:12:28;;;;;;;103.97;46.28;;;;;;;;;;5932649;23;20469;-57
2022/03/02 08:14:54;;;;;;;98.80;43.00;;;;;;;;;;5955038;23;20690;-56
2022/03/02 08:17:19;;;;;;;89.40;40.72;;;;;;;;;;5960444;23;20017;-57
2022/03/02 08:19:48;;;;;;;90.22;41.67;;;;;;;;;;5985878;23;20008;-56
2022/03/02 08:22:14;;;;;;;96.13;41.92;;;;;;;;;;5988373;23;20019;-57
2022/03/02 08:24:42;;;;;;;94.45;40.65;;;;;;;;;;5985186;23;20012;-57
2022/03/02 08:27:09;;;;;;;90.50;41.55;;;;;;;;;;5987980;23;20040;-57
2022/03/02 08:29:35;;;;;;;85.88;41.38;;;;;;;;;;5986622;23;20020;-57
2022/03/02 08:32:02;;;;;;;85.75;39.05;;;;;;;;;;5986651;23;20043;-57
2022/03/02 08:34:28;;;;;;;89.40;39.35;;;;;;;;;;5986924;23;20020;-57
2022/03/02 08:36:54;;;;;;;79.13;39.83;;;;;;;;;;5987023;23;20008;-57
2022/03/02 08:39:19;;;;;;;86.53;39.28;;;;;;;;;;5986964;23;20012;-57
2022/03/02 08:41:45;;;;;;;95.07;39.05;;;;;;;;;;5986753;23;20056;-58
2022/03/02 08:44:12;;;;;;;90.15;40.08;;;;;;;;;;5987672;23;20020;-57
2022/03/02 08:46:38;;;;;;;85.40;36.50;;;;;;;;;;5986076;23;20012;-57
2022/03/02 08:49:03;;;;;;;87.05;37.35;;;;;;;;;;5987472;23;20084;-57
2022/03/02 08:51:29;;;;;;;87.25;39.03;;;;;;;;;;5986149;23;20029;-58
2022/03/02 08:53:55;;;;;;;79.63;38.88;;;;;;;;;;5958368;23;20004;-58
2022/03/02 08:56:21;;;;;;;79.88;37.45;;;;;;;;;;5981482;23;20031;-57
2022/03/02 08:58:46;;;;;;;81.75;38.15;;;;;;;;;;5983468;23;20448;-56
2022/03/02 09:01:12;;;;;;;70.38;36.33;;;;;;;;;;5983159;23;20044;-58
2022/03/02 09:03:41;;;;;;;81.25;36.03;;;;;;;;;;5982851;23;20027;-58
2022/03/02 09:06:07;;;;;;;84.97;38.10;;;;;;;;;;5981727;23;20016;-58
2022/03/02 09:08:32;;;;;;;77.75;36.78;;;;;;;;;;5982423;23;20024;-57
2022/03/02 09:10:59;;;;;;;82.82;37.55;;;;;;;;;;5977214;23;20070;-56
2022/03/02 09:13:25;;;;;;;75.28;35.50;;;;;;;;;;5972973;23;20012;-57
2022/03/02 09:15:50;;;;;;;81.03;34.78;;;;;;;;;;5977311;23;20038;-55
2022/03/02 09:18:15;;;;;;;74.07;34.85;;;;;;;;;;5952955;23;20475;-52
2022/03/02 09:20:41;;;;;;;72.03;34.42;;;;;;;;;;5977621;23;20004;-55
2022/03/02 09:23:07;;;;;;;82.18;34.83;;;;;;;;;;5977287;23;20012;-56
2022/03/02 09:25:32;;;;;;;75.70;34.72;;;;;;;;;;5986072;23;20020;-57
2022/03/02 09:27:58;;;;;;;73.05;34.95;;;;;;;;;;5986291;23;20023;-57
2022/03/02 09:30:23;;;;;;;74.80;34.92;;;;;;;;;;5983923;23;20020;-57
2022/03/02 09:32:51;;;;;;;74.13;32.55;;;;;;;;;;5984709;23;20110;-58
2022/03/02 09:35:17;;;;;;;64.72;33.25;;;;;;;;;;5982019;23;20008;-55
2022/03/02 09:37:43;;;;;;;73.25;32.42;;;;;;;;;;5985067;23;20416;-57
2022/03/02 09:40:19;;;;;;;73.53;33.40;;;;;;;;;;5983236;23;20023;-58
2022/03/02 09:42:53;;;;;;;75.88;35.28;;;;;;;;;;5983965;23;20012;-57
2022/03/02 09:45:20;;;;;;;74.53;35.45;;;;;;;;;;5983101;23;20012;-55
2022/03/02 09:47:49;;;;;;;70.38;33.53;;;;;;;;;;5985754;23;20027;-57
2022/03/02 09:50:17;;;;;;;72.10;35.35;;;;;;;;;;5983243;23;20044;-57
2022/03/02 09:52:45;;;;;;;73.45;35.10;;;;;;;;;;5983425;23;20067;-58
2022/03/02 09:55:12;;;;;;;73.07;33.80;;;;;;;;;;5984878;23;20331;-58
2022/03/02 09:57:43;;;;;;;73.40;35.58;;;;;;;;;;5983518;23;20008;-58
2022/03/02 10:00:08;;;;;;;66.28;35.70;;;;;;;;;;5986669;23;20012;-58
2022/03/02 10:02:38;;;;;;;70.35;34.47;;;;;;;;;;5982194;23;20019;-57
2022/03/02 10:05:05;;;;;;;70.13;34.55;;;;;;;;;;5986738;23;20020;-57
2022/03/02 10:07:33;;;;;;;74.50;34.92;;;;;;;;;;5984390;23;20052;-55
2022/03/02 10:10:23;;;;;;;84.35;34.13;;;;;;;;;;5987069;23;20028;-57
2022/03/02 10:12:48;;;;;;;69.07;33.33;;;;;;;;;;6010983;23;20016;-57
2022/03/02 10:15:14;;;;;;;69.13;33.53;;;;;;;;;;6014700;23;20012;-58
2022/03/02 10:17:44;;;;;;;73.28;37.05;;;;;;;;;;6019379;23;20029;-57
2022/03/02 10:20:10;;;;;;;67.90;33.28;;;;;;;;;;6042367;23;20094;-56
2022/03/02 10:22:45;;;;;;;63.47;33.70;;;;;;;;;;6014959;23;20019;-57
2022/03/02 10:25:13;;;;;;;72.50;32.75;;;;;;;;;;6043386;23;20016;-56
2022/03/02 10:27:44;;;;;;;70.13;35.58;;;;;;;;;;6041178;23;20017;-56
2022/03/02 10:30:10;;;;;;;74.93;36.13;;;;;;;;;;6043281;23;20020;-57
2022/03/02 10:32:39;;;;;;;65.10;33.22;;;;;;;;;;6039734;23;20460;-56
2022/03/02 10:35:06;;;;;;;74.10;36.03;;;;;;;;;;6042036;23;20040;-58
2022/03/02 10:37:31;;;;;;;79.20;36.38;;;;;;;;;;6040617;23;20050;-56
2022/03/02 10:40:05;;;;;;;70.57;33.45;;;;;;;;;;6042675;23;20050;-53
2022/03/02 10:42:33;;;;;;;69.25;35.67;;;;;;;;;;6040394;23;20023;-55
2022/03/02 10:45:03;;;;;;;61.67;32.60;;;;;;;;;;6039028;23;20413;-57
2022/03/02 10:47:30;;;;;;;64.40;34.78;;;;;;;;;;6025792;23;20079;-57
2022/03/02 10:49:57;;;;;;;68.68;35.78;;;;;;;;;;6041768;23;20023;-56
2022/03/02 10:52:22;;;;;;;72.22;35.75;;;;;;;;;;6039894;23;20060;-56
2022/03/02 10:54:49;;;;;;;62.00;34.65;;;;;;;;;;6043922;23;20034;-55
2022/03/02 10:57:15;;;;;;;70.20;36.20;;;;;;;;;;6044002;23;20029;-57
2022/03/02 10:59:42;;;;;;;67.97;35.42;;;;;;;;;;6042716;23;20015;-56
2022/03/02 11:02:08;;;;;;;66.97;35.40;;;;;;;;;;6044474;23;20015;-57
2022/03/02 11:04:35;;;;;;;75.63;36.03;;;;;;;;;;6043416;23;20026;-56
2022/03/02 11:07:02;;;;;;;60.88;34.30;;;;;;;;;;6043463;23;20038;-57
2022/03/02 11:09:33;;;;;;;65.10;34.55;;;;;;;;;;6043581;23;20019;-55
2022/03/02 11:11:58;;;;;;;69.90;36.75;;;;;;;;;;6035496;23;20438;-56
2022/03/02 11:14:24;;;;;;;69.15;34.20;;;;;;;;;;6041447;23;20031;-57
2022/03/02 11:16:50;;;;;;;65.78;34.63;;;;;;;;;;6041999;23;20098;-54
2022/03/02 11:19:16;;;;;;;68.45;32.95;;;;;;;;;;6017904;23;20027;-58
2022/03/02 11:21:42;;;;;;;67.75;35.13;;;;;;;;;;6042448;23;20094;-58
2022/03/02 11:24:09;;;;;;;87.45;38.53;;;;;;;;;;6043735;23;20007;-57
2022/03/02 11:26:35;;;;;;;74.40;40.08;;;;;;;;;;6042970;23;20067;-58
2022/03/02 11:29:02;;;;;;;77.68;38.40;;;;;;;;;;6043296;23;20015;-55
2022/03/02 11:31:30;;;;;;;76.13;36.83;;;;;;;;;;6042813;23;20038;-57
2022/03/02 11:34:09;;;;;;;71.22;37.20;;;;;;;;;;6042070;23;20011;-58
2022/03/02 11:36:36;;;;;;;71.07;35.78;;;;;;;;;;6038929;23;20090;-58
2022/03/02 11:39:02;;;;;;;72.97;35.80;;;;;;;;;;6015642;23;20027;-55
2022/03/02 11:41:35;;;;;;;70.72;36.28;;;;;;;;;;6037768;23;20674;-56
2022/03/02 11:44:01;;;;;;;78.43;37.50;;;;;;;;;;6041549;23;20027;-55
2022/03/02 11:46:26;;;;;;;72.43;36.28;;;;;;;;;;6038375;23;20023;-58
2022/03/02 11:48:51;;;;;;;78.72;37.78;;;;;;;;;;6043306;23;20007;-57
2022/03/02 11:51:27;;;;;;;74.53;35.58;;;;;;;;;;6039417;23;20051;-57
2022/03/02 11:53:53;;;;;;;65.40;34.40;;;;;;;;;;6040693;23;20015;-58
2022/03/02 11:56:19;;;;;;;67.90;34.78;;;;;;;;;;6041315;23;20079;-58
2022/03/02 11:58:54;;;;;;;67.00;34.85;;;;;;;;;;6042353;23;20011;-55
2022/03/02 12:01:20;;;;;;;61.95;32.50;;;;;;;;;;6041602;23;20019;-57
2022/03/02 12:03:58;;;;;;;65.30;33.17;;;;;;;;;;6039984;23;20015;-56
2022/03/02 12:06:24;;;;;;;61.42;32.83;;;;;;;;;;6039192;23;20015;-58
2022/03/02 12:08:51;;;;;;;59.58;31.90;;;;;;;;;;6018331;23;20010;-58
2022/03/02 12:11:21;;;;;;;62.72;30.23;;;;;;;;;;6029177;23;20051;-57
2022/03/02 12:14:04;;;;;;;49.65;28.15;;;;;;;;;;6041195;23;20039;-59
2022/03/02 12:16:51;;;;;;;51.88;28.88;;;;;;;;;;6037376;23;20334;-57
2022/03/02 12:19:34;;;;;;;59.90;29.77;;;;;;;;;;6039740;23;20126;-56
2022/03/02 12:22:01;;;;;;;50.45;28.02;;;;;;;;;;6040789;23;20034;-58
2022/03/02 12:24:30;;;;;;;54.30;29.15;;;;;;;;;;6035300;23;20024;-57
2022/03/02 12:27:05;;;;;;;51.30;27.25;;;;;;;;;;6032646;23;20110;-55
2022/03/02 12:29:31;;;;;;;48.58;25.88;;;;;;;;;;6032175;23;20019;-57
2022/03/02 12:32:26;;;;;;;50.47;27.15;;;;;;;;;;6041018;23;20019;-58
2022/03/02 12:34:51;;;;;;;47.50;24.67;;;;;;;;;;6019541;23;20007;-59
2022/03/02 12:37:17;;;;;;;44.15;24.50;;;;;;;;;;6015313;23;20017;-57
2022/03/02 12:39:43;;;;;;;51.22;27.50;;;;;;;;;;6038099;23;20083;-57
2022/03/02 12:42:10;;;;;;;50.95;26.67;;;;;;;;;;6041610;23;20011;-58
2022/03/02 12:44:39;;;;;;;40.97;24.52;;;;;;;;;;6037732;23;20019;-58
2022/03/02 12:47:06;;;;;;;42.30;24.73;;;;;;;;;;6041475;23;20040;-58
2022/03/02 12:49:32;;;;;;;45.55;26.30;;;;;;;;;;6036389;23;20464;-57
2022/03/02 12:51:58;;;;;;;46.95;25.85;;;;;;;;;;6015210;23;20039;-58
2022/03/02 12:54:23;;;;;;;44.45;24.83;;;;;;;;;;6037608;23;20114;-58
2022/03/02 12:56:49;;;;;;;40.70;22.83;;;;;;;;;;6039716;23;20022;-57
2022/03/02 12:59:16;;;;;;;45.75;24.85;;;;;;;;;;6039148;23;20007;-58
2022/03/02 13:01:41;;;;;;;44.65;24.55;;;;;;;;;;6035929;23;20011;-57
2022/03/02 13:04:09;;;;;;;40.42;22.45;;;;;;;;;;6040791;23;20043;-58
2022/03/02 13:06:37;;;;;;;48.70;24.00;;;;;;;;;;6038602;23;20030;-58
2022/03/02 13:09:13;;;;;;;38.78;23.42;;;;;;;;;;6039938;23;20018;-59
2022/03/02 13:11:38;;;;;;;37.75;23.27;;;;;;;;;;6038463;23;20122;-59
2022/03/02 13:14:04;;;;;;;37.67;21.38;;;;;;;;;;6031730;23;20019;-58
2022/03/02 13:16:39;;;;;;;45.17;23.52;;;;;;;;;;6031262;23;20015;-59
2022/03/02 13:19:15;;;;;;;34.72;19.95;;;;;;;;;;6008721;23;20023;-57
2022/03/02 13:21:40;;;;;;;37.55;20.85;;;;;;;;;;6037039;23;20015;-59
2022/03/02 13:24:10;;;;;;;37.78;22.27;;;;;;;;;;6033481;23;20250;-58
2022/03/02 13:26:36;;;;;;;38.20;22.05;;;;;;;;;;6037072;23;20039;-57
2022/03/02 13:29:07;;;;;;;37.42;21.13;;;;;;;;;;6034691;23;20015;-57
2022/03/02 13:31:51;;;;;;;37.80;21.58;;;;;;;;;;6035792;23;20047;-56
2022/03/02 13:34:17;;;;;;;35.70;21.63;;;;;;;;;;6035395;23;20079;-55
2022/03/02 13:36:45;;;;;;;46.45;23.35;;;;;;;;;;6025491;23;20024;-58
2022/03/02 13:39:20;;;;;;;41.03;23.42;;;;;;;;;;6029078;23;20086;-58
2022/03/02 13:41:45;;;;;;;38.33;22.95;;;;;;;;;;6029973;23;20033;-57
2022/03/02 13:44:25;;;;;;;46.97;23.15;;;;;;;;;;6030352;23;20023;-58
2022/03/02 13:47:14;;;;;;;42.70;24.40;;;;;;;;;;6039414;23;20008;-57
2022/03/02 13:52:15;;;;;;;44.33;24.70;;;;;;;;;;6040393;23;20012;-56
2022/03/02 13:54:41;;;;;;;42.63;23.23;;;;;;;;;;6021267;23;20018;-57
2022/03/02 13:57:16;;;;;;;41.88;22.83;;;;;;;;;;6036616;23;20015;-57
2022/03/02 13:59:42;;;;;;;45.75;24.35;;;;;;;;;;6038544;23;20011;-57
2022/03/02 14:02:07;;;;;;;37.67;22.15;;;;;;;;;;6015885;23;20031;-58
2022/03/02 14:04:33;;;;;;;35.47;22.80;;;;;;;;;;6038542;23;20015;-58
2022/03/02 14:07:04;;;;;;;40.75;22.15;;;;;;;;;;6041985;23;20007;-57
2022/03/02 14:09:30;;;;;;;38.47;22.80;;;;;;;;;;6037789;23;20019;-58
2022/03/02 14:11:56;;;;;;;40.92;21.95;;;;;;;;;;6041558;23;20023;-57
2022/03/02 14:14:26;;;;;;;40.25;22.88;;;;;;;;;;6038813;23;20016;-57
2022/03/02 14:16:54;;;;;;;36.83;21.55;;;;;;;;;;6015762;23;20384;-57
2022/03/02 14:19:20;;;;;;;34.33;20.73;;;;;;;;;;6032887;23;20051;-58